Time;durP1;ratioP1;P1;durP2;ratioP2;P2;SDS_P1;SDS_P2;PMS_P1;PMS_P2;Temp;Humidity;BMP_temperature;BMP_pressure;BME280_temperature;BME280_humidity;BME280_pressure;Samples;Min_cycle;Max_cycle;Signal;HPM_P1;HPM_P2
2022/04/24 00:04:01;;;;;;;16.90;15.30;;;11.80;98.70;;;;;;10365440;28;20235;-79
2022/04/24 00:09:04;;;;;;;16.57;14.87;;;11.90;99.10;;;;;;10361737;28;20907;-78
2022/04/24 00:14:10;;;;;;;16.77;15.07;;;11.90;98.90;;;;;;10373542;28;20222;-79
2022/04/24 00:19:12;;;;;;;18.40;16.60;;;11.90;99.20;;;;;;10363026;28;20199;-79
2022/04/24 00:24:14;;;;;;;16.13;14.57;;;11.90;99.00;;;;;;10375759;28;20317;-80
2022/04/24 00:29:18;;;;;;;16.80;15.23;;;12.00;99.20;;;;;;10374078;28;20198;-79
2022/04/24 00:34:20;;;;;;;17.47;15.77;;;12.00;98.60;;;;;;10361939;28;20242;-80
2022/04/24 00:39:22;;;;;;;17.50;15.90;;;12.10;98.70;;;;;;10373797;28;20195;-80
2022/04/24 00:44:26;;;;;;;18.10;16.40;;;12.00;99.20;;;;;;10367746;28;20233;-79
2022/04/24 00:49:57;;;;;;;17.90;16.20;;;12.00;99.30;;;;;;10352914;28;20210;-77
2022/04/24 00:55:00;;;;;;;16.80;15.10;;;12.10;99.20;;;;;;10357063;28;20227;-78
2022/04/24 01:00:05;;;;;;;15.87;14.37;;;12.10;99.10;;;;;;10339164;28;20206;-78
2022/04/24 01:05:09;;;;;;;16.23;14.73;;;12.20;99.00;;;;;;10348894;28;20226;-79
2022/04/24 01:10:11;;;;;;;18.40;16.60;;;12.20;99.40;;;;;;10360455;28;20202;-79
2022/04/24 01:15:15;;;;;;;17.90;16.03;;;12.30;99.20;;;;;;10388826;28;20261;-79
2022/04/24 01:20:23;;;;;;;15.80;14.30;;;12.30;99.30;;;;;;10392766;28;20233;-79
2022/04/24 01:25:25;;;;;;;17.67;15.97;;;12.40;98.90;;;;;;10410167;28;20233;-78
2022/04/24 01:30:27;;;;;;;17.10;15.43;;;12.40;98.90;;;;;;10410255;28;20545;-78
2022/04/24 01:35:31;;;;;;;18.93;17.17;;;12.40;99.20;;;;;;10393212;28;20234;-78
2022/04/24 01:40:33;;;;;;;19.50;17.50;;;12.40;99.00;;;;;;10340427;28;20225;-78
2022/04/24 01:45:35;;;;;;;19.90;17.73;;;12.40;99.10;;;;;;10409288;28;20222;-77
2022/04/24 01:50:39;;;;;;;17.87;16.20;;;12.50;99.30;;;;;;10413106;28;20194;-78
2022/04/24 01:55:41;;;;;;;18.57;16.67;;;12.50;99.30;;;;;;10417747;28;20218;-79
2022/04/24 02:00:43;;;;;;;16.97;15.30;;;12.50;99.30;;;;;;10418397;28;20208;-78
2022/04/24 02:05:47;;;;;;;17.10;15.30;;;12.60;99.00;;;;;;10384723;28;20575;-78
2022/04/24 02:10:49;;;;;;;17.73;16.13;;;12.60;99.10;;;;;;10379574;28;20211;-79
2022/04/24 02:15:51;;;;;;;18.37;16.57;;;12.60;99.20;;;;;;10416330;28;20206;-79
2022/04/24 02:20:55;;;;;;;19.23;17.27;;;12.70;99.60;;;;;;10388151;28;20230;-79
2022/04/24 02:25:57;;;;;;;18.37;16.57;;;12.70;99.70;;;;;;10416431;28;20716;-80
2022/04/24 02:30:59;;;;;;;16.90;15.30;;;12.70;99.50;;;;;;10399109;28;20202;-80
2022/04/24 02:36:03;;;;;;;16.87;15.30;;;12.70;99.80;;;;;;10416465;28;20260;-79
2022/04/24 02:41:05;;;;;;;19.10;17.20;;;12.70;99.90;;;;;;10367911;28;20203;-78
2022/04/24 02:46:08;;;;;;;18.67;16.77;;;12.80;99.90;;;;;;10413226;28;20229;-79
2022/04/24 02:51:11;;;;;;;19.13;17.33;;;12.70;99.90;;;;;;10416144;28;20268;-78
2022/04/24 02:56:13;;;;;;;19.13;17.33;;;12.70;99.90;;;;;;10419226;28;20213;-78
2022/04/24 03:01:15;;;;;;;20.33;18.43;;;12.60;99.90;;;;;;10414766;28;20306;-78
2022/04/24 03:06:19;;;;;;;19.93;17.90;;;12.50;99.90;;;;;;10397660;28;20222;-77
2022/04/24 03:11:21;;;;;;;21.80;19.67;;;12.50;99.90;;;;;;10382702;28;20577;-79
2022/04/24 03:16:23;;;;;;;22.80;20.40;;;12.30;99.90;;;;;;10410273;28;20214;-79
2022/04/24 03:21:26;;;;;;;25.40;21.90;;;12.20;99.90;;;;;;10415125;28;20240;-78
2022/04/24 03:26:28;;;;;;;23.17;20.67;;;12.20;99.90;;;;;;10415232;28;20218;-79
2022/04/24 03:31:31;;;;;;;24.00;21.50;;;12.10;99.90;;;;;;10418138;28;20198;-79
2022/04/24 03:36:34;;;;;;;23.97;21.50;;;12.10;99.90;;;;;;10418428;28;20209;-79
2022/04/24 03:41:36;;;;;;;24.50;22.10;;;12.10;99.90;;;;;;10408262;28;20198;-79
2022/04/24 03:46:38;;;;;;;25.70;23.10;;;12.10;99.90;;;;;;10423329;28;20218;-79
2022/04/24 03:51:42;;;;;;;22.90;20.60;;;12.10;99.90;;;;;;10399970;28;20197;-79
2022/04/24 03:56:44;;;;;;;23.17;20.87;;;12.10;99.90;;;;;;10416477;28;20233;-79
2022/04/24 04:01:46;;;;;;;25.10;22.43;;;12.20;99.90;;;;;;10399862;28;20704;-79
2022/04/24 04:06:49;;;;;;;23.80;21.30;;;12.20;99.90;;;;;;10399696;28;20221;-79
2022/04/24 04:11:51;;;;;;;26.60;23.90;;;12.20;99.90;;;;;;10409486;28;20202;-78
2022/04/24 04:16:54;;;;;;;23.53;21.27;;;12.20;99.90;;;;;;10415800;28;20192;-79
2022/04/24 04:21:57;;;;;;;23.57;21.23;;;12.20;99.90;;;;;;10388146;28;20319;-80
2022/04/24 04:26:59;;;;;;;27.73;24.93;;;12.20;99.90;;;;;;10405584;28;20712;-79
2022/04/24 04:32:02;;;;;;;28.10;25.40;;;12.20;99.90;;;;;;10421609;28;20217;-80
2022/04/24 04:37:06;;;;;;;29.00;26.27;;;12.10;99.90;;;;;;10424325;28;20229;-80
2022/04/24 04:42:08;;;;;;;30.07;27.30;;;12.10;99.90;;;;;;10385839;28;20261;-80
2022/04/24 04:47:10;;;;;;;19.00;17.10;;;12.00;99.90;;;;;;10386825;28;20221;-80
2022/04/24 04:52:13;;;;;;;11.70;10.90;;;11.80;99.90;;;;;;10414992;28;20226;-80
2022/04/24 04:57:16;;;;;;;7.70;7.30;;;11.50;99.90;;;;;;10386374;28;20202;-80
2022/04/24 05:02:18;;;;;;;6.93;6.63;;;11.30;99.90;;;;;;10418497;28;20296;-80
2022/04/24 05:07:21;;;;;;;6.00;5.70;;;11.10;99.90;;;;;;10416619;28;20256;-80
2022/04/24 05:12:27;;;;;;;5.80;5.60;;;10.80;99.90;;;;;;10403976;28;20305;-79
2022/04/24 05:17:29;;;;;;;4.30;4.10;;;10.60;99.90;;;;;;10416314;28;20266;-80
2022/04/24 05:22:32;;;;;;;5.00;4.90;;;10.40;99.90;;;;;;10397148;28;20275;-78
2022/04/24 05:27:36;;;;;;;3.53;3.33;;;10.40;99.90;;;;;;10412919;28;20197;-80
2022/04/24 05:32:42;;;;;;;3.80;3.70;;;10.30;99.90;;;;;;10411363;28;20268;-78
2022/04/24 05:37:47;;;;;;;4.57;4.37;;;10.20;99.90;;;;;;10407226;28;20226;-79
2022/04/24 05:42:51;;;;;;;4.30;4.20;;;10.20;99.90;;;;;;10375699;28;20309;-79
2022/04/24 05:47:54;;;;;;;3.73;3.63;;;10.10;99.90;;;;;;10396834;28;20217;-78
2022/04/24 05:52:57;;;;;;;4.47;4.37;;;10.10;99.90;;;;;;10409915;28;20609;-78
2022/04/24 05:58:00;;;;;;;4.13;4.03;;;10.00;99.90;;;;;;10414045;28;20205;-80
2022/04/24 06:03:02;;;;;;;4.00;3.80;;;10.00;99.90;;;;;;10396156;28;20712;-80
2022/04/24 06:08:06;;;;;;;3.40;3.30;;;10.00;99.90;;;;;;10411662;28;20199;-79
2022/04/24 06:13:08;;;;;;;2.67;2.57;;;10.00;99.90;;;;;;10387873;28;20600;-79
2022/04/24 06:18:11;;;;;;;4.10;3.90;;;10.10;99.90;;;;;;10396731;28;20197;-80
2022/04/24 06:23:14;;;;;;;3.93;3.63;;;10.00;99.90;;;;;;10395343;28;20234;-79
2022/04/24 06:28:16;;;;;;;3.90;3.70;;;10.00;99.90;;;;;;10406226;28;20696;-78
2022/04/24 06:33:19;;;;;;;2.03;2.03;;;10.00;99.90;;;;;;10425332;28;20202;-79
2022/04/24 06:38:23;;;;;;;3.63;3.43;;;10.10;99.90;;;;;;10393693;28;20317;-79
2022/04/24 06:43:25;;;;;;;2.33;2.13;;;10.10;99.90;;;;;;10405859;28;20229;-79
2022/04/24 06:48:27;;;;;;;3.50;3.40;;;10.10;99.90;;;;;;10399287;28;20266;-81
2022/04/24 06:53:30;;;;;;;2.50;2.40;;;10.10;99.90;;;;;;10403547;28;20218;-79
2022/04/24 06:58:33;;;;;;;3.30;3.20;;;10.00;99.90;;;;;;10423606;28;20545;-79
2022/04/24 07:03:35;;;;;;;3.33;3.23;;;10.10;99.90;;;;;;10420564;28;20218;-79
2022/04/24 07:08:38;;;;;;;3.20;3.10;;;10.20;99.90;;;;;;10390935;28;20206;-79
2022/04/24 07:13:41;;;;;;;3.40;3.30;;;10.30;99.90;;;;;;10402516;28;20529;-81
2022/04/24 07:18:45;;;;;;;3.17;3.07;;;10.30;99.90;;;;;;10403752;28;20195;-80
2022/04/24 07:23:51;;;;;;;1.87;1.80;;;10.40;99.90;;;;;;10405160;28;20222;-79
2022/04/24 07:28:56;;;;;;;3.30;3.20;;;10.40;99.90;;;;;;10403329;28;20578;-81
2022/04/24 07:33:58;;;;;;;3.23;3.03;;;10.40;99.90;;;;;;10398238;28;20216;-78
2022/04/24 07:39:05;;;;;;;3.40;3.23;;;10.40;99.90;;;;;;10399319;28;20198;-80
2022/04/24 07:44:08;;;;;;;2.67;2.57;;;10.40;99.90;;;;;;10400461;28;20304;-79
2022/04/24 07:49:10;;;;;;;3.40;3.30;;;10.40;99.90;;;;;;10401738;28;20197;-80
2022/04/24 07:54:14;;;;;;;1.90;1.90;;;10.40;99.90;;;;;;10420774;28;20286;-80
2022/04/24 07:59:16;;;;;;;3.00;2.90;;;10.40;99.90;;;;;;10417586;28;20670;-79
2022/04/24 08:04:18;;;;;;;3.00;2.90;;;10.40;99.90;;;;;;10414771;28;20236;-79
2022/04/24 08:09:21;;;;;;;2.90;2.80;;;10.40;99.90;;;;;;10396136;28;20206;-79
2022/04/24 08:14:23;;;;;;;2.60;2.50;;;10.50;99.90;;;;;;10397951;28;20245;-81
2022/04/24 08:19:26;;;;;;;2.80;2.60;;;10.50;99.90;;;;;;10363071;28;20211;-79
2022/04/24 08:24:29;;;;;;;2.20;2.10;;;10.50;99.90;;;;;;10368469;28;20241;-78
2022/04/24 08:29:32;;;;;;;3.10;3.00;;;10.50;99.90;;;;;;10389911;28;20689;-78
2022/04/24 08:34:34;;;;;;;3.13;3.03;;;10.50;99.90;;;;;;10424763;22;20287;-81
2022/04/24 08:39:40;;;;;;;2.33;2.23;;;10.60;99.90;;;;;;10422339;28;20226;-80
2022/04/24 08:44:42;;;;;;;2.27;2.17;;;10.60;99.90;;;;;;10414780;28;20253;-79
2022/04/24 08:49:48;;;;;;;2.53;2.37;;;10.60;99.90;;;;;;10407100;28;20225;-81
2022/04/24 08:54:56;;;;;;;2.70;2.60;;;10.60;99.90;;;;;;10417854;28;20245;-81
2022/04/24 08:59:59;;;;;;;2.70;2.60;;;10.60;99.90;;;;;;10423586;28;20194;-80
2022/04/24 09:05:03;;;;;;;2.20;2.10;;;10.60;99.90;;;;;;10399024;28;20221;-81
2022/04/24 09:10:09;;;;;;;2.87;2.73;;;10.50;99.90;;;;;;10392552;28;20209;-81
2022/04/24 09:15:19;;;;;;;2.80;2.70;;;10.50;99.90;;;;;;10399902;28;20310;-81
2022/04/24 09:20:24;;;;;;;2.30;2.20;;;10.60;99.90;;;;;;10363759;28;20274;-81
2022/04/24 09:25:39;;;;;;;2.83;2.73;;;10.70;99.90;;;;;;10386607;28;20577;-79
2022/04/24 09:30:49;;;;;;;5.53;3.03;;;10.80;99.90;;;;;;10397276;28;20205;-79
2022/04/24 09:35:56;;;;;;;2.83;2.73;;;10.70;99.90;;;;;;10399426;28;20795;-80
2022/04/24 09:41:02;;;;;;;3.27;3.17;;;10.80;99.90;;;;;;10398026;28;20229;-80
2022/04/24 09:46:04;;;;;;;3.10;3.00;;;10.80;99.90;;;;;;10388225;28;20234;-79
2022/04/24 09:51:07;;;;;;;3.47;3.37;;;10.80;99.90;;;;;;10397515;28;20205;-79
2022/04/24 09:56:11;;;;;;;3.00;2.80;;;10.80;99.90;;;;;;10414411;28;20214;-79
2022/04/24 10:01:15;;;;;;;4.10;3.93;;;10.90;99.90;;;;;;10403817;28;20722;-81
2022/04/24 10:06:18;;;;;;;3.33;3.03;;;10.90;99.90;;;;;;10391854;28;20223;-78
2022/04/24 10:11:22;;;;;;;4.13;3.90;;;10.90;99.90;;;;;;10364138;28;20578;-80
2022/04/24 10:16:43;;;;;;;4.63;4.43;;;11.00;99.90;;;;;;10387225;28;20638;-81
2022/04/24 10:22:03;;;;;;;3.13;3.03;;;11.10;99.90;;;;;;10383946;28;20637;-78
2022/04/24 10:27:09;;;;;;;3.70;3.50;;;11.10;99.90;;;;;;10396633;28;20276;-79
2022/04/24 10:32:11;;;;;;;4.77;4.57;;;11.20;99.90;;;;;;10397296;28;20237;-78
2022/04/24 10:37:14;;;;;;;4.53;4.33;;;11.30;99.90;;;;;;10401005;28;20227;-80
2022/04/24 10:42:17;;;;;;;3.40;3.30;;;11.40;99.90;;;;;;10388471;28;20218;-79
2022/04/24 10:47:20;;;;;;;3.53;3.33;;;11.50;99.90;;;;;;10368400;28;20226;-80
2022/04/24 10:52:22;;;;;;;2.70;2.60;;;11.70;99.90;;;;;;10424652;28;20214;-79
2022/04/24 10:57:26;;;;;;;18.60;17.10;;;11.70;99.90;;;;;;10369701;28;20198;-81
2022/04/24 11:02:30;;;;;;;3.33;3.13;;;11.50;99.90;;;;;;10380515;28;20234;-81
2022/04/24 11:07:33;;;;;;;4.10;3.80;;;11.40;99.90;;;;;;10400459;28;20228;-79
2022/04/24 11:12:37;;;;;;;2.33;2.23;;;11.30;99.90;;;;;;10386962;28;20228;-81
2022/04/24 11:17:40;;;;;;;4.07;3.93;;;11.20;99.90;;;;;;10419055;28;20223;-79
2022/04/24 11:27:56;;;;;;;3.17;3.07;;;11.10;99.90;;;;;;10397455;28;20243;-83
2022/04/24 11:32:59;;;;;;;3.40;3.17;;;11.20;99.90;;;;;;10368901;28;20598;-82
2022/04/24 11:38:02;;;;;;;3.20;3.10;;;11.20;99.90;;;;;;10405000;28;20645;-82
2022/04/24 11:43:07;;;;;;;2.27;2.17;;;11.40;99.90;;;;;;10366415;28;20649;-82
2022/04/24 11:53:30;;;;;;;3.90;3.77;;;11.40;99.90;;;;;;10392009;28;20861;-82
2022/04/24 11:58:38;;;;;;;3.27;3.07;;;11.40;99.90;;;;;;10377714;28;20201;-82
2022/04/24 12:03:44;;;;;;;3.50;3.40;;;11.50;99.90;;;;;;10391790;28;20253;-82
2022/04/24 12:08:49;;;;;;;3.30;3.10;;;11.60;99.90;;;;;;10408997;28;20198;-82
2022/04/24 12:14:03;;;;;;;4.37;4.17;;;11.60;99.90;;;;;;10385529;28;20769;-82
2022/04/24 12:19:06;;;;;;;3.60;3.50;;;11.70;99.90;;;;;;10392207;28;20201;-82
2022/04/24 12:24:08;;;;;;;3.90;3.70;;;11.70;99.90;;;;;;10356265;28;20778;-82
2022/04/24 12:29:11;;;;;;;3.60;3.50;;;11.70;99.90;;;;;;10376188;28;20256;-84
2022/04/24 12:34:14;;;;;;;3.47;3.37;;;11.70;99.90;;;;;;10366239;28;20292;-82
2022/04/24 12:39:23;;;;;;;2.80;2.70;;;11.70;99.90;;;;;;10373026;28;20190;-81
2022/04/24 12:44:27;;;;;;;2.70;2.57;;;11.70;99.90;;;;;;10399913;28;20233;-82
2022/04/24 12:49:30;;;;;;;2.17;2.00;;;11.60;99.90;;;;;;10373105;28;20194;-82
2022/04/24 12:54:33;;;;;;;2.17;2.07;;;11.70;99.90;;;;;;10377999;28;20213;-82
2022/04/24 12:59:39;;;;;;;1.80;1.70;;;11.70;99.90;;;;;;10372030;28;20553;-83
2022/04/24 13:04:41;;;;;;;1.90;1.80;;;11.80;99.90;;;;;;10381143;28;20210;-82
2022/04/24 13:09:43;;;;;;;5.73;4.90;;;11.80;99.90;;;;;;10378430;28;20288;-83
2022/04/24 13:14:47;;;;;;;2.17;2.07;;;11.90;99.90;;;;;;10369811;28;20241;-83
2022/04/24 13:19:49;;;;;;;2.03;1.83;;;11.90;99.90;;;;;;10413862;28;20194;-83
2022/04/24 13:24:51;;;;;;;2.07;1.97;;;12.00;99.90;;;;;;10370148;28;20222;-84
2022/04/24 13:29:54;;;;;;;2.43;2.33;;;12.10;99.90;;;;;;10382417;28;20194;-83
2022/04/24 13:34:58;;;;;;;1.80;1.70;;;12.20;99.90;;;;;;10391434;28;20569;-83
2022/04/24 13:40:00;;;;;;;2.50;1.43;;;12.20;99.90;;;;;;10393700;28;20216;-83
2022/04/24 13:45:04;;;;;;;1.90;1.80;;;12.20;99.90;;;;;;10378297;28;20592;-83
2022/04/24 13:50:07;;;;;;;1.40;1.40;;;12.20;99.90;;;;;;10385809;28;20201;-84
2022/04/24 13:55:10;;;;;;;1.53;1.53;;;12.20;99.90;;;;;;10401585;28;20732;-82
2022/04/24 14:00:15;;;;;;;1.40;1.40;;;12.20;99.90;;;;;;10385385;28;20244;-83
2022/04/24 14:05:18;;;;;;;1.70;1.60;;;12.20;99.90;;;;;;10401494;28;20241;-83
2022/04/24 14:10:20;;;;;;;1.50;1.50;;;12.30;99.90;;;;;;10380188;28;20202;-83
2022/04/24 14:15:26;;;;;;;1.40;1.40;;;12.30;99.90;;;;;;10401238;28;20218;-83
2022/04/24 14:20:29;;;;;;;1.90;1.80;;;12.30;99.90;;;;;;10384445;28;20288;-83
2022/04/24 14:25:31;;;;;;;1.40;1.40;;;12.30;99.90;;;;;;10401343;28;20226;-82
2022/04/24 14:30:35;;;;;;;1.90;1.80;;;12.30;99.90;;;;;;10401750;28;20758;-83
2022/04/24 14:35:37;;;;;;;2.70;2.60;;;12.30;99.90;;;;;;10385245;28;20755;-83
2022/04/24 14:40:40;;;;;;;2.07;1.97;;;12.30;99.90;;;;;;10384529;28;20221;-83
2022/04/24 14:56:23;;;;;;;1.87;1.77;;;12.40;99.90;;;;;;10380987;28;20217;-83
2022/04/24 15:01:27;;;;;;;1.20;1.20;;;12.40;99.90;;;;;;10384135;28;20194;-82
2022/04/24 15:06:29;;;;;;;1.57;1.47;;;12.30;99.90;;;;;;10400600;28;20226;-83
2022/04/24 15:11:32;;;;;;;1.90;1.80;;;12.30;99.90;;;;;;10351849;28;20304;-82
2022/04/24 15:16:35;;;;;;;1.70;1.60;;;12.20;99.90;;;;;;10369133;28;20225;-83
2022/04/24 15:21:38;;;;;;;2.27;2.17;;;12.10;99.90;;;;;;10371434;28;20193;-82
2022/04/24 15:26:40;;;;;;;2.67;2.57;;;12.10;99.90;;;;;;10377503;28;20222;-80
2022/04/24 15:31:44;;;;;;;3.07;2.90;;;12.10;99.90;;;;;;10391952;28;20207;-82
2022/04/24 15:36:49;;;;;;;3.17;2.97;;;12.10;99.90;;;;;;10405625;28;20592;-82
2022/04/24 15:41:51;;;;;;;4.30;4.00;;;12.10;99.90;;;;;;10371363;28;20209;-82
2022/04/24 15:53:11;;;;;;;2.70;2.53;;;12.10;99.90;;;;;;10377489;28;20288;-82
2022/04/24 15:58:13;;;;;;;2.73;2.63;;;12.10;99.90;;;;;;10364868;28;20729;-82
2022/04/24 16:03:15;;;;;;;2.20;2.00;;;12.00;99.90;;;;;;10377432;28;20222;-82
2022/04/24 16:08:22;;;;;;;2.77;2.57;;;12.00;99.90;;;;;;10368529;28;20249;-82
2022/04/24 16:13:24;;;;;;;2.90;2.70;;;12.10;99.90;;;;;;10362026;28;20581;-81
2022/04/24 16:18:27;;;;;;;3.57;3.10;;;12.10;99.90;;;;;;10397374;28;20743;-81
2022/04/24 16:23:31;;;;;;;3.60;3.40;;;12.10;99.90;;;;;;10380373;28;20229;-82
2022/04/24 16:28:33;;;;;;;4.43;4.03;;;12.10;99.90;;;;;;10366395;28;20287;-81
2022/04/24 16:33:36;;;;;;;4.70;4.30;;;12.10;99.90;;;;;;10368735;28;20225;-81
2022/04/24 16:38:39;;;;;;;5.30;4.80;;;12.20;99.90;;;;;;10357163;28;20204;-83
2022/04/24 16:43:42;;;;;;;7.20;6.50;;;12.20;99.90;;;;;;10361788;28;20314;-84
2022/04/24 16:48:44;;;;;;;8.50;7.60;;;12.30;99.90;;;;;;10378717;28;20226;-83
2022/04/24 16:59:07;;;;;;;10.10;9.10;;;12.30;99.90;;;;;;10367159;28;20223;-81
2022/04/24 17:04:09;;;;;;;12.30;9.20;;;12.30;99.90;;;;;;10389950;28;20227;-81
2022/04/24 17:09:13;;;;;;;8.27;7.50;;;12.30;99.90;;;;;;10366138;28;20257;-80
2022/04/24 17:14:15;;;;;;;10.10;9.13;;;12.30;99.90;;;;;;10379721;28;20582;-80
2022/04/24 17:19:17;;;;;;;8.77;7.77;;;12.40;99.90;;;;;;10392706;28;21033;-80
2022/04/24 17:24:21;;;;;;;10.73;9.00;;;12.40;99.90;;;;;;10391962;28;20225;-80
2022/04/24 17:29:23;;;;;;;10.03;8.37;;;12.40;99.90;;;;;;10400736;23;20221;-79
2022/04/24 17:34:25;;;;;;;9.90;8.90;;;12.40;99.90;;;;;;10403561;28;20333;-79
2022/04/24 17:39:29;;;;;;;9.23;8.20;;;12.30;99.90;;;;;;10394133;28;20218;-77
2022/04/24 17:44:34;;;;;;;9.03;7.70;;;12.30;99.90;;;;;;10378317;28;20206;-79
2022/04/24 17:49:36;;;;;;;7.83;7.13;;;12.30;99.90;;;;;;10379781;28;20317;-79
2022/04/24 17:54:41;;;;;;;8.10;7.30;;;12.30;99.90;;;;;;10389725;28;20275;-78
2022/04/24 17:59:47;;;;;;;6.83;6.20;;;12.30;99.90;;;;;;10389351;28;20309;-78
2022/04/24 18:04:49;;;;;;;7.23;6.53;;;12.30;99.90;;;;;;10378337;28;20202;-78
2022/04/24 18:09:53;;;;;;;5.47;5.00;;;12.30;99.90;;;;;;10366287;28;20229;-78
2022/04/24 18:14:55;;;;;;;6.67;5.90;;;12.30;99.90;;;;;;10390548;28;20205;-76
2022/04/24 18:19:58;;;;;;;7.23;6.17;;;12.30;99.90;;;;;;10388675;28;20224;-77
2022/04/24 18:25:01;;;;;;;8.03;7.20;;;12.30;99.90;;;;;;10394581;28;20661;-77
2022/04/24 18:30:06;;;;;;;7.63;6.53;;;12.20;99.90;;;;;;10370140;28;20617;-78
2022/04/24 18:35:08;;;;;;;8.43;7.23;;;12.20;99.90;;;;;;10392271;28;20293;-76
2022/04/24 18:40:15;;;;;;;5.40;5.00;;;12.20;99.90;;;;;;10402583;28;20240;-78
2022/04/24 18:45:18;;;;;;;6.43;5.83;;;12.20;99.90;;;;;;10371686;28;20245;-78
2022/04/24 18:50:21;;;;;;;7.00;5.67;;;12.20;99.90;;;;;;10382090;28;20437;-78
2022/04/24 18:55:24;;;;;;;6.23;5.70;;;12.20;99.90;;;;;;10402314;28;20206;-78
2022/04/24 19:00:27;;;;;;;6.90;6.30;;;12.20;99.90;;;;;;10420260;28;20634;-76
2022/04/24 19:16:13;;;;;;;8.60;7.73;;;12.20;99.90;;;;;;10400988;28;20250;-78
2022/04/24 19:21:17;;;;;;;8.30;7.50;;;12.20;99.90;;;;;;10377637;28;20436;-80
2022/04/24 19:26:20;;;;;;;10.23;8.60;;;12.20;99.90;;;;;;10402195;28;20737;-80
2022/04/24 19:31:22;;;;;;;10.40;9.40;;;12.20;99.90;;;;;;10394151;28;20205;-79
2022/04/24 19:36:25;;;;;;;12.37;10.53;;;12.20;99.90;;;;;;10405102;28;20744;-79
2022/04/24 19:41:28;;;;;;;13.40;12.10;;;12.20;99.90;;;;;;10394714;28;20248;-79
2022/04/24 19:46:31;;;;;;;15.17;13.77;;;12.20;99.90;;;;;;10392540;28;20672;-78
2022/04/24 19:51:33;;;;;;;18.03;15.90;;;12.20;99.90;;;;;;10398390;28;20201;-78
2022/04/24 19:56:36;;;;;;;16.23;14.70;;;12.20;99.90;;;;;;10388406;28;20566;-78
2022/04/24 20:01:39;;;;;;;17.67;15.93;;;12.30;99.90;;;;;;10397435;28;20194;-77
2022/04/24 20:06:42;;;;;;;13.30;12.17;;;12.30;99.90;;;;;;10388810;28;20221;-78
2022/04/24 20:11:46;;;;;;;14.10;12.63;;;12.30;99.90;;;;;;10366117;28;20202;-78
2022/04/24 20:16:48;;;;;;;13.17;11.87;;;12.30;99.90;;;;;;10395390;28;20210;-78
2022/04/24 20:21:50;;;;;;;12.43;11.27;;;12.30;99.90;;;;;;10390049;28;20224;-78
2022/04/24 20:26:54;;;;;;;13.90;12.50;;;12.30;99.90;;;;;;10397836;28;20240;-78
2022/04/24 20:31:57;;;;;;;14.60;13.00;;;12.30;99.90;;;;;;10389619;28;20198;-79
2022/04/24 20:37:00;;;;;;;14.90;13.50;;;12.30;99.90;;;;;;10376337;28;20304;-79
2022/04/24 20:42:04;;;;;;;12.37;11.27;;;12.30;99.90;;;;;;10365558;28;20206;-79
2022/04/24 20:47:06;;;;;;;9.97;8.97;;;12.40;99.90;;;;;;10404010;28;20253;-78
2022/04/24 20:52:09;;;;;;;18.70;16.70;;;12.30;99.90;;;;;;10374124;28;20681;-77
2022/04/24 20:57:12;;;;;;;12.03;10.93;;;12.40;99.90;;;;;;10386823;28;20300;-78
2022/04/24 21:02:17;;;;;;;9.90;9.00;;;12.40;99.90;;;;;;10390823;28;20207;-78
2022/04/24 21:07:20;;;;;;;10.17;9.27;;;12.40;99.90;;;;;;10396948;28;20264;-78
2022/04/24 21:12:23;;;;;;;10.67;9.73;;;12.40;99.90;;;;;;10400047;28;20217;-78
2022/04/24 21:17:26;;;;;;;11.90;10.67;;;12.40;99.90;;;;;;10384433;28;20222;-78
2022/04/24 21:22:28;;;;;;;10.23;9.33;;;12.50;99.90;;;;;;10369162;28;20208;-77
2022/04/24 21:27:33;;;;;;;9.23;8.43;;;12.50;99.90;;;;;;10389369;28;20257;-78
2022/04/24 21:32:35;;;;;;;10.10;9.20;;;12.50;99.90;;;;;;10390638;28;20208;-78
2022/04/24 21:37:37;;;;;;;9.60;8.70;;;12.50;99.90;;;;;;10380157;28;20222;-79
2022/04/24 21:42:41;;;;;;;12.33;11.07;;;12.50;99.90;;;;;;10353662;28;20202;-78
2022/04/24 21:47:43;;;;;;;10.80;9.80;;;12.50;99.90;;;;;;10390911;28;20268;-77
2022/04/24 21:52:45;;;;;;;11.43;10.43;;;12.50;99.90;;;;;;10391396;28;20269;-78
2022/04/24 21:57:48;;;;;;;12.97;11.77;;;12.50;99.90;;;;;;10400430;28;20733;-78
2022/04/24 22:08:09;;;;;;;13.00;11.90;;;12.50;99.90;;;;;;10376434;28;20230;-79
2022/04/24 22:13:12;;;;;;;13.73;12.47;;;12.50;99.90;;;;;;10397341;28;20230;-79
2022/04/24 22:18:15;;;;;;;13.80;12.60;;;12.50;99.90;;;;;;10406343;28;20217;-79
2022/04/24 22:28:38;;;;;;;17.00;15.40;;;12.50;99.90;;;;;;10403772;28;20287;-80
2022/04/24 22:33:40;;;;;;;17.87;16.07;;;12.50;99.90;;;;;;10398446;28;20550;-79
2022/04/24 22:38:42;;;;;;;18.00;16.30;;;12.50;99.90;;;;;;10392644;28;20237;-79
2022/04/24 22:43:46;;;;;;;21.87;19.50;;;12.50;99.90;;;;;;10398740;28;20604;-79
2022/04/24 22:48:48;;;;;;;21.50;19.20;;;12.50;99.90;;;;;;10405200;28;20241;-78
2022/04/24 22:53:51;;;;;;;19.93;18.03;;;12.50;99.90;;;;;;10404827;28;20264;-78
2022/04/24 22:58:54;;;;;;;20.47;18.50;;;12.50;99.90;;;;;;10380031;28;20511;-78
2022/04/24 23:03:57;;;;;;;22.70;20.50;;;12.50;99.90;;;;;;10383828;28;20640;-79
2022/04/24 23:08:59;;;;;;;23.93;21.53;;;12.40;99.90;;;;;;10397618;28;20304;-78
2022/04/24 23:14:03;;;;;;;24.70;22.30;;;12.50;99.90;;;;;;10382076;28;20202;-77
2022/04/24 23:19:15;;;;;;;22.70;20.60;;;12.50;99.90;;;;;;10394919;28;20226;-78
2022/04/24 23:24:17;;;;;;;24.27;21.97;;;12.50;99.90;;;;;;10402963;28;20562;-77
2022/04/24 23:29:21;;;;;;;23.00;20.80;;;12.50;99.90;;;;;;10458986;22;20221;-81
2022/04/24 23:34:25;;;;;;;24.70;22.27;;;12.50;99.90;;;;;;10444723;28;20255;-80
2022/04/24 23:39:27;;;;;;;23.40;21.27;;;12.50;99.90;;;;;;10421475;28;20222;-82
2022/04/24 23:44:30;;;;;;;23.47;21.07;;;12.50;99.90;;;;;;10396049;28;20209;-82
2022/04/24 23:49:33;;;;;;;21.10;18.93;;;12.50;99.90;;;;;;10395185;28;20580;-81
2022/04/24 23:54:35;;;;;;;24.70;22.20;;;12.50;99.90;;;;;;10412184;28;20198;-81
2022/04/24 23:59:38;;;;;;;22.83;20.63;;;12.50;99.90;;;;;;10416573;28;20244;-80
